Impacts METAR Board INFO
IDs:

KSTL - St Louis/Lambert Int, MO, US

Updated at: 0312 UTC 18 Dec 2017
Potential Impact None Slight Moderate High
Time17/15Z 17/16Z 17/17Z 17/18Z 17/19Z 17/20Z 17/21Z 17/22Z 17/23Z 18/00Z 18/01Z 18/02Z 18/03Z
VIS10 10 10 10 10 10 10 10 10 10 10 10 10
CIG65 65 65 60 55 85 49 35 40 28 31 28 17
CoverOVCOVCOVCOVCOVCBKNBKNOVCOVCOVCOVCOVCOVC
FltCatVFRVFRVFRVFRVFRVFRVFRVFRVFRMVFRVFRMVFRMVFR
WX-------------------------DZ
WDir02301600130220180210230230220230230
WSpd0 3 3 0 3 8 7 8 8 13 11 8 6
WGst-- -- -- -- -- -- -- -- -- -- -- -- --
Raw hourly METARs
KSTL 171451Z 00000KT 10SM OVC065 08/01 A3007 RMK AO2 SLP184 60000 T00780006 53002
KSTL 171551Z 23003KT 10SM OVC065 09/01 A3011 RMK AO2 SLP199 T00890011
KSTL 171651Z 16003KT 10SM OVC065 09/01 A3010 RMK AO2 SLP194 T00940006
KSTL 171751Z 00000KT 10SM OVC060 11/01 A3006 RMK AO2 SLP183 60000 T01060011 10106 20072 58001
KSTL 171851Z 13003KT 10SM OVC055 11/02 A3003 RMK AO2 SLP170 T01110017
KSTL 171951Z 22008KT 10SM SCT050 BKN085 12/03 A3000 RMK AO2 SLP162 T01220028
KSTL 172051Z 18007KT 10SM BKN049 BKN060 13/04 A2999 RMK AO2 SLP158 T01280044 56023
KSTL 172151Z 21008KT 10SM BKN035 OVC046 12/04 A3001 RMK AO2 SLP164 T01220044
KSTL 172251Z 23008KT 10SM FEW033 OVC040 12/06 A3002 RMK AO2 SLP166 T01170056
KSTL 172358Z 23013KT 10SM BKN028 OVC034 10/06 A3005 RMK AO2 T01000056
KSTL 180051Z 22011KT 10SM OVC031 10/06 A3005 RMK AO2 SLP179 T01000061
KSTL 180151Z 23008KT 10SM OVC028 09/06 A3007 RMK AO2 SLP184 T00940061
KSTL 180251Z 23006KT 10SM -DZ OVC017 09/07 A3007 RMK AO2 DZB41 SLP186 P0000 60000 T00890067 53006